createdAt,value
2022-11-24T00:00:54.555Z,7.61
2022-11-24T00:03:22.400Z,7.60
2022-11-24T00:05:50.233Z,7.60
2022-11-24T00:08:19.358Z,7.64
2022-11-24T00:10:47.063Z,7.71
2022-11-24T00:13:14.787Z,7.75
2022-11-24T00:15:42.453Z,7.70
2022-11-24T00:18:10.258Z,7.67
2022-11-24T00:20:38.029Z,7.64
2022-11-24T00:23:05.751Z,7.57
2022-11-24T00:25:34.793Z,7.63
2022-11-24T00:28:02.511Z,7.55
2022-11-24T00:30:30.235Z,7.51
2022-11-24T00:32:58.086Z,7.51
2022-11-24T00:35:25.775Z,7.43
2022-11-24T00:37:53.965Z,7.49
2022-11-24T00:40:21.679Z,7.53
2022-11-24T00:42:50.714Z,7.60
2022-11-24T00:45:18.411Z,7.61
2022-11-24T00:47:46.126Z,7.66
2022-11-24T00:50:13.822Z,7.72
2022-11-24T00:52:41.471Z,7.75
2022-11-24T00:55:09.373Z,7.77
2022-11-24T00:57:37.046Z,7.71
2022-11-24T01:00:07.481Z,7.64
2022-11-24T01:02:35.250Z,7.61
2022-11-24T01:05:03.289Z,7.48
2022-11-24T01:07:31.969Z,7.52
2022-11-24T01:09:59.766Z,7.44
2022-11-24T01:12:27.565Z,7.47
2022-11-24T01:14:55.399Z,7.51
2022-11-24T01:17:24.413Z,7.49
2022-11-24T01:19:52.127Z,7.48
2022-11-24T01:22:19.786Z,7.46
2022-11-24T01:24:47.465Z,7.41
2022-11-24T01:27:15.151Z,7.44
2022-11-24T01:29:42.911Z,7.52
2022-11-24T01:32:10.584Z,7.49
2022-11-24T01:34:39.770Z,7.50
2022-11-24T01:37:07.482Z,7.44
2022-11-24T01:39:35.145Z,7.35
2022-11-24T01:42:03.127Z,7.37
2022-11-24T01:44:33.542Z,7.35
2022-11-24T01:47:03.845Z,7.35
2022-11-24T01:49:40.947Z,7.36
2022-11-24T01:52:13.683Z,7.39
2022-11-24T01:54:46.517Z,7.38
2022-11-24T01:57:18.510Z,7.38
2022-11-24T01:59:49.567Z,7.33
2022-11-24T02:02:18.467Z,7.33
2022-11-24T02:04:48.817Z,7.39
2022-11-24T02:07:16.814Z,7.39
2022-11-24T02:09:50.556Z,7.43
2022-11-24T02:12:18.260Z,7.41
2022-11-24T02:14:47.297Z,7.45
2022-11-24T02:17:15.041Z,7.45
2022-11-24T02:19:54.818Z,7.49
2022-11-24T02:22:30.385Z,7.45
2022-11-24T02:25:07.551Z,7.47
2022-11-24T02:27:36.869Z,7.57
2022-11-24T02:30:05.570Z,7.52
2022-11-24T02:32:34.872Z,7.58
2022-11-24T02:35:03.018Z,7.60
2022-11-24T02:37:30.803Z,7.54
2022-11-24T02:39:58.501Z,7.57
2022-11-24T02:42:28.785Z,7.60
2022-11-24T02:45:01.433Z,7.58
2022-11-24T02:47:29.367Z,7.54
2022-11-24T02:49:57.075Z,7.61
2022-11-24T02:52:24.901Z,7.64
2022-11-24T02:54:52.616Z,7.65
2022-11-24T02:57:20.338Z,7.61
2022-11-24T02:59:48.000Z,7.71
2022-11-24T03:02:17.119Z,7.71
2022-11-24T03:04:45.451Z,7.70
2022-11-24T03:07:13.232Z,7.71
2022-11-24T03:09:40.991Z,7.65
2022-11-24T03:12:09.014Z,7.64
2022-11-24T03:14:37.049Z,7.63
2022-11-24T03:17:05.158Z,7.71
2022-11-24T03:19:34.246Z,7.60
2022-11-24T03:22:01.976Z,7.58
2022-11-24T03:24:29.659Z,7.53
2022-11-24T03:26:57.465Z,7.52
2022-11-24T03:29:25.233Z,7.49
2022-11-24T03:31:53.216Z,7.47
2022-11-24T03:34:20.921Z,7.46
2022-11-24T03:36:49.929Z,7.46
2022-11-24T03:39:17.614Z,7.47
2022-11-24T03:41:45.325Z,7.46
2022-11-24T03:44:13.009Z,7.39
2022-11-24T03:46:40.769Z,7.43
2022-11-24T03:49:08.456Z,7.18
2022-11-24T03:51:36.088Z,7.40
2022-11-24T03:54:05.681Z,7.40
2022-11-24T03:56:33.372Z,7.31
2022-11-24T03:59:01.108Z,7.45
2022-11-24T04:01:28.802Z,7.43
2022-11-24T04:03:56.662Z,7.47
2022-11-24T04:06:24.321Z,7.46
2022-11-24T04:08:52.098Z,7.50
2022-11-24T04:11:38.612Z,7.48
2022-11-24T04:14:10.549Z,7.63
2022-11-24T04:16:41.054Z,7.59
2022-11-24T04:19:08.778Z,7.50
2022-11-24T04:21:36.607Z,7.54
2022-11-24T04:24:04.219Z,7.55
2022-11-24T04:26:33.188Z,7.59
2022-11-24T04:29:00.810Z,7.66
2022-11-24T04:31:28.456Z,7.67
2022-11-24T04:33:56.048Z,7.77
2022-11-24T04:36:23.627Z,7.77
2022-11-24T04:39:23.901Z,7.82
2022-11-24T04:41:42.240Z,7.78
2022-11-24T04:44:09.833Z,7.87
2022-11-24T04:46:37.496Z,7.78
2022-11-24T04:49:05.468Z,7.80
2022-11-24T04:51:33.348Z,7.83
2022-11-24T04:54:00.964Z,7.71
2022-11-24T04:56:28.477Z,7.79
2022-11-24T04:58:57.417Z,7.91
2022-11-24T05:01:25.048Z,7.88
2022-11-24T05:03:54.427Z,7.94
2022-11-24T05:06:22.457Z,7.86
2022-11-24T05:08:50.860Z,8.01
2022-11-24T05:11:19.311Z,7.89
2022-11-24T05:13:47.038Z,8.03
2022-11-24T05:16:16.341Z,7.96
2022-11-24T05:18:43.978Z,7.85
2022-11-24T05:21:11.563Z,7.75
2022-11-24T05:23:39.243Z,7.80
2022-11-24T05:26:07.311Z,7.79
2022-11-24T05:28:34.966Z,7.62
2022-11-24T05:31:03.602Z,7.72
2022-11-24T05:33:33.937Z,7.58
2022-11-24T05:36:03.063Z,7.53
2022-11-24T05:38:30.926Z,7.57
2022-11-24T05:41:01.472Z,7.34
2022-11-24T05:43:29.188Z,7.52
2022-11-24T05:45:59.929Z,7.44
2022-11-24T05:48:27.742Z,7.48
2022-11-24T05:50:57.706Z,7.37
2022-11-24T05:53:26.958Z,7.28
2022-11-24T05:55:54.684Z,7.21
2022-11-24T05:58:22.377Z,7.22
2022-11-24T06:00:50.047Z,7.14
2022-11-24T06:03:17.751Z,7.19
2022-11-24T06:05:47.244Z,7.18
2022-11-24T06:08:16.455Z,7.14
2022-11-24T06:10:44.067Z,7.12
2022-11-24T06:13:11.672Z,7.17
2022-11-24T06:15:40.782Z,7.10
2022-11-24T06:18:08.391Z,7.03
2022-11-24T06:20:36.116Z,7.06
2022-11-24T06:23:03.757Z,7.07
2022-11-24T06:25:32.717Z,6.92
2022-11-24T06:28:04.677Z,6.89
2022-11-24T06:30:32.325Z,6.91
2022-11-24T06:32:59.953Z,6.87
2022-11-24T06:35:27.564Z,6.89
2022-11-24T06:37:55.093Z,6.92
2022-11-24T06:40:22.680Z,6.81
2022-11-24T06:42:55.379Z,6.70
2022-11-24T06:45:23.397Z,6.69
2022-11-24T06:47:51.079Z,6.62
2022-11-24T06:50:18.679Z,6.73
2022-11-24T06:52:46.298Z,6.82
2022-11-24T06:55:14.056Z,6.76
2022-11-24T06:57:41.806Z,6.80
2022-11-24T07:00:12.001Z,6.86
2022-11-24T07:02:45.460Z,6.80
2022-11-24T07:05:13.647Z,6.76
2022-11-24T07:07:41.271Z,6.83
2022-11-24T07:10:09.456Z,6.78
2022-11-24T07:12:37.110Z,6.87
2022-11-24T07:15:05.382Z,6.87
2022-11-24T07:17:36.753Z,6.84
2022-11-24T07:20:04.929Z,6.87
2022-11-24T07:22:32.555Z,6.91
2022-11-24T07:25:00.170Z,6.95
2022-11-24T07:27:28.110Z,6.95
2022-11-24T07:29:55.768Z,6.89
2022-11-24T07:32:23.407Z,6.88
2022-11-24T07:34:52.431Z,6.99
2022-11-24T07:37:20.015Z,6.91
2022-11-24T07:39:47.664Z,6.98
2022-11-24T07:42:15.252Z,6.96
2022-11-24T07:44:42.779Z,6.97
2022-11-24T07:47:10.397Z,6.98
2022-11-24T07:49:38.150Z,7.04
2022-11-24T07:52:09.478Z,7.02
2022-11-24T07:54:37.221Z,7.06
2022-11-24T07:57:04.798Z,7.06
2022-11-24T07:59:32.474Z,7.12
2022-11-24T08:02:00.326Z,7.17
2022-11-24T08:04:28.073Z,7.18
2022-11-24T08:06:56.893Z,7.15
2022-11-24T08:09:25.942Z,7.26
2022-11-24T08:11:53.565Z,7.28
2022-11-24T08:14:21.193Z,7.21
2022-11-24T08:16:48.833Z,7.15
2022-11-24T08:19:16.495Z,7.21
2022-11-24T08:21:44.190Z,7.17
2022-11-24T08:24:13.899Z,7.20
2022-11-24T08:26:43.052Z,7.23
2022-11-24T08:29:11.018Z,7.15
2022-11-24T08:31:40.145Z,7.11
2022-11-24T08:34:08.033Z,7.11
2022-11-24T08:36:35.820Z,7.06
2022-11-24T08:39:03.978Z,7.01
2022-11-24T08:41:32.275Z,6.96
2022-11-24T08:44:01.509Z,6.99
2022-11-24T08:46:29.164Z,6.99
2022-11-24T08:48:56.998Z,7.05
2022-11-24T08:51:26.867Z,6.77
2022-11-24T08:53:56.678Z,7.05
2022-11-24T08:56:24.946Z,7.19
2022-11-24T08:58:52.676Z,7.24
2022-11-24T09:01:21.791Z,7.26
2022-11-24T09:03:51.397Z,7.31
2022-11-24T09:06:22.614Z,7.51
2022-11-24T09:08:50.530Z,7.48
2022-11-24T09:11:19.108Z,7.54
2022-11-24T09:13:47.102Z,7.68
2022-11-24T09:16:16.761Z,7.64
2022-11-24T09:18:46.389Z,7.61
2022-11-24T09:21:17.077Z,7.43
2022-11-24T09:23:45.680Z,7.64
2022-11-24T09:26:15.830Z,7.76
2022-11-24T09:28:44.016Z,7.79
2022-11-24T09:31:14.335Z,7.85
2022-11-24T09:33:42.581Z,7.84
2022-11-24T09:36:12.205Z,7.93
2022-11-24T09:38:40.141Z,7.96
2022-11-24T09:41:38.403Z,8.06
2022-11-24T09:44:14.203Z,8.11
2022-11-24T09:46:54.984Z,8.22
2022-11-24T09:49:31.042Z,8.27
2022-11-24T09:52:04.354Z,8.33
2022-11-24T09:54:36.019Z,8.42
2022-11-24T09:57:07.603Z,8.42
2022-11-24T09:59:35.413Z,8.52
2022-11-24T10:02:03.292Z,8.56
2022-11-24T10:04:36.178Z,8.62
2022-11-24T10:07:16.508Z,8.60
2022-11-24T10:09:58.750Z,8.74
2022-11-24T10:12:43.471Z,8.75
2022-11-24T10:15:25.426Z,8.78
2022-11-24T10:18:05.658Z,8.83
2022-11-24T10:20:50.454Z,8.75
2022-11-24T10:23:35.771Z,8.70
2022-11-24T10:26:13.566Z,8.76
2022-11-24T10:28:44.969Z,9.02
2022-11-24T10:31:23.872Z,9.33
2022-11-24T10:33:52.292Z,9.80
2022-11-24T10:36:25.297Z,10.12
2022-11-24T10:39:02.657Z,9.99
2022-11-24T10:41:40.678Z,9.63
2022-11-24T10:44:13.960Z,9.55
2022-11-24T10:46:41.970Z,9.46
2022-11-24T10:49:18.940Z,9.29
2022-11-24T10:52:02.108Z,9.21
2022-11-24T10:54:31.172Z,9.40
2022-11-24T10:56:59.304Z,9.55
2022-11-24T10:59:38.729Z,9.56
2022-11-24T11:02:39.320Z,9.65
2022-11-24T11:05:35.113Z,9.66
2022-11-24T11:08:16.979Z,9.58
2022-11-24T11:10:46.969Z,9.52
2022-11-24T11:13:26.700Z,9.46
2022-11-24T11:15:54.783Z,9.44
2022-11-24T11:18:23.449Z,9.52
2022-11-24T11:20:54.358Z,9.47
2022-11-24T11:23:27.701Z,9.48
2022-11-24T11:26:32.020Z,9.46
2022-11-24T11:34:48.490Z,9.69
2022-11-24T11:37:16.983Z,9.66
2022-11-24T11:39:49.011Z,9.59
2022-11-24T11:43:00.159Z,9.68
2022-11-24T11:45:17.244Z,9.59
2022-11-24T11:47:50.921Z,9.53
2022-11-24T11:50:25.297Z,9.76
2022-11-24T11:53:04.704Z,9.66
2022-11-24T11:55:49.737Z,9.70
2022-11-24T11:58:32.498Z,9.64
2022-11-24T12:01:12.697Z,9.71
2022-11-24T12:04:05.466Z,9.68
2022-11-24T12:06:54.805Z,9.68
2022-11-24T12:09:35.665Z,9.67
2022-11-24T12:12:18.453Z,9.73
2022-11-24T12:15:04.587Z,9.70
2022-11-24T12:17:43.192Z,9.73
2022-11-24T12:20:33.207Z,9.76
2022-11-24T12:23:10.562Z,9.81
2022-11-24T12:25:41.940Z,9.79
2022-11-24T12:28:25.742Z,9.87
2022-11-24T12:31:04.472Z,9.86
2022-11-24T12:33:39.903Z,9.74
2022-11-24T12:36:17.406Z,9.95
2022-11-24T12:38:57.097Z,10.02
2022-11-24T12:41:42.857Z,9.99
2022-11-24T12:44:28.267Z,9.98
2022-11-24T12:47:04.509Z,10.02
2022-11-24T12:49:41.162Z,9.95
2022-11-24T12:52:20.611Z,9.92
2022-11-24T12:54:48.181Z,9.94
2022-11-24T12:57:22.125Z,9.92
2022-11-24T12:59:58.848Z,10.02
2022-11-24T13:02:37.876Z,10.00
2022-11-24T13:05:19.935Z,9.97
2022-11-24T13:07:50.012Z,9.94
2022-11-24T13:13:27.205Z,10.09
2022-11-24T13:19:09.092Z,9.96
2022-11-24T13:21:57.664Z,9.96
2022-11-24T13:24:31.361Z,10.00
2022-11-24T13:27:27.063Z,10.02
2022-11-24T13:29:55.302Z,10.05
2022-11-24T13:33:03.086Z,10.05
2022-11-24T13:35:32.065Z,10.09
2022-11-24T13:37:59.685Z,10.07
2022-11-24T13:40:54.298Z,10.09
2022-11-24T13:43:30.377Z,10.04
2022-11-24T13:45:57.974Z,9.98
2022-11-24T13:48:54.797Z,10.18
2022-11-24T13:51:25.777Z,10.13
2022-11-24T13:53:56.538Z,10.10
2022-11-24T13:56:29.694Z,10.12
2022-11-24T13:59:00.755Z,9.99
2022-11-24T14:01:29.660Z,10.08
2022-11-24T14:04:33.572Z,10.17
2022-11-24T14:07:08.316Z,10.02
2022-11-24T14:09:42.042Z,9.94
2022-11-24T14:12:16.207Z,9.99
2022-11-24T14:14:45.546Z,9.98
2022-11-24T14:17:19.419Z,9.96
2022-11-24T14:19:48.955Z,10.02
2022-11-24T14:22:20.963Z,9.92
2022-11-24T14:24:54.041Z,9.89
2022-11-24T14:27:29.273Z,9.85
2022-11-24T14:29:58.406Z,9.85
2022-11-24T14:32:26.342Z,9.64
2022-11-24T14:34:54.492Z,9.64
2022-11-24T14:37:23.884Z,9.64
2022-11-24T14:39:51.608Z,9.63
2022-11-24T14:42:22.374Z,9.60
2022-11-24T14:44:54.214Z,9.56
2022-11-24T14:47:31.430Z,9.50
2022-11-24T14:50:09.762Z,9.50
2022-11-24T14:52:45.784Z,9.47
2022-11-24T14:55:25.723Z,9.40
2022-11-24T14:57:53.521Z,9.38
2022-11-24T15:00:28.399Z,9.39
2022-11-24T15:03:08.302Z,9.34
2022-11-24T15:05:52.946Z,9.38
2022-11-24T15:08:23.463Z,9.24
2022-11-24T15:10:58.864Z,9.05
2022-11-24T15:13:27.057Z,8.97
2022-11-24T15:16:02.416Z,9.02
2022-11-24T15:18:37.346Z,8.95
2022-11-24T15:21:05.068Z,8.91
2022-11-24T15:23:35.792Z,8.77
2022-11-24T15:26:30.713Z,8.75
2022-11-24T15:28:59.192Z,8.71
2022-11-24T15:31:26.866Z,8.70
2022-11-24T15:33:54.458Z,8.66
2022-11-24T15:36:22.060Z,8.62
2022-11-24T15:38:51.992Z,8.63
2022-11-24T15:41:22.051Z,8.62
2022-11-24T15:43:49.756Z,8.58
2022-11-24T15:46:17.470Z,8.55
2022-11-24T15:48:45.228Z,8.48
2022-11-24T15:51:15.608Z,8.50
2022-11-24T15:53:46.258Z,8.47
2022-11-24T15:56:20.087Z,8.45
2022-11-24T15:58:48.416Z,8.42
2022-11-24T16:01:16.084Z,8.39
2022-11-24T16:03:48.520Z,8.40
2022-11-24T16:06:24.143Z,8.39
2022-11-24T16:08:52.582Z,8.35
2022-11-24T16:11:21.564Z,8.38
2022-11-24T16:13:53.073Z,8.34
2022-11-24T16:16:22.336Z,8.32
2022-11-24T16:18:49.971Z,8.34
2022-11-24T16:21:17.613Z,8.31
2022-11-24T16:23:45.617Z,8.32
2022-11-24T16:26:13.274Z,8.24
2022-11-24T16:28:42.771Z,8.18
2022-11-24T16:31:10.470Z,8.19
2022-11-24T16:33:40.779Z,8.17
2022-11-24T16:36:09.310Z,8.14
2022-11-24T16:38:36.988Z,8.17
2022-11-24T16:41:04.662Z,8.11
2022-11-24T16:43:32.367Z,8.06
2022-11-24T16:46:19.289Z,8.10
2022-11-24T16:48:48.135Z,8.03
2022-11-24T16:51:16.666Z,8.04
2022-11-24T16:53:44.959Z,7.95
2022-11-24T16:56:13.240Z,8.03
2022-11-24T16:58:42.257Z,8.03
2022-11-24T17:01:12.632Z,8.04
2022-11-24T17:03:41.341Z,8.05
2022-11-24T17:06:11.252Z,7.91
2022-11-24T17:08:40.439Z,8.08
2022-11-24T17:11:08.752Z,8.10
2022-11-24T17:13:36.425Z,8.11
2022-11-24T17:16:06.148Z,8.04
2022-11-24T17:18:35.859Z,8.09
2022-11-24T17:21:09.095Z,8.13
2022-11-24T17:23:37.306Z,8.12
2022-11-24T17:26:06.427Z,8.11
2022-11-24T17:28:34.936Z,8.13
2022-11-24T17:31:07.081Z,8.11
2022-11-24T17:33:36.657Z,8.06
2022-11-24T17:36:04.993Z,8.12
2022-11-24T17:38:32.685Z,8.10
2022-11-24T17:41:00.326Z,8.08
2022-11-24T17:43:28.212Z,8.09
2022-11-24T17:45:57.293Z,8.05
2022-11-24T17:48:25.258Z,8.10
2022-11-24T17:51:01.488Z,8.10
2022-11-24T17:53:29.244Z,8.07
2022-11-24T17:56:00.855Z,8.04
2022-11-24T17:58:29.110Z,8.03
2022-11-24T18:00:57.253Z,8.05
2022-11-24T18:03:25.546Z,8.09
2022-11-24T18:05:53.123Z,8.10
2022-11-24T18:08:22.264Z,8.08
2022-11-24T18:10:49.884Z,8.11
2022-11-24T18:13:34.168Z,8.11
2022-11-24T18:16:08.201Z,8.17
2022-11-24T18:18:40.139Z,8.18
2022-11-24T18:21:12.750Z,8.17
2022-11-24T18:23:42.488Z,7.96
2022-11-24T18:26:12.738Z,8.16
2022-11-24T18:28:40.464Z,8.17
2022-11-24T18:31:11.022Z,8.18
2022-11-24T18:33:39.451Z,8.15
2022-11-24T18:36:08.323Z,8.20
2022-11-24T18:38:36.337Z,8.15
2022-11-24T18:41:06.762Z,8.12
2022-11-24T18:43:38.023Z,8.06
2022-11-24T18:46:07.577Z,8.06
2022-11-24T18:48:36.027Z,8.06
2022-11-24T18:51:03.812Z,8.00
2022-11-24T18:53:32.334Z,8.00
2022-11-24T18:56:02.146Z,7.99
2022-11-24T18:58:32.304Z,7.97
2022-11-24T19:01:07.984Z,7.74
2022-11-24T19:03:37.950Z,7.91
2022-11-24T19:06:06.899Z,7.91
2022-11-24T19:08:35.091Z,7.93
2022-11-24T19:11:02.761Z,7.87
2022-11-24T19:13:31.662Z,7.88
2022-11-24T19:16:00.345Z,7.86
2022-11-24T19:18:29.665Z,7.79
2022-11-24T19:20:57.399Z,7.79
2022-11-24T19:23:25.277Z,7.82
2022-11-24T19:25:52.937Z,7.82
2022-11-24T19:28:20.575Z,7.81
2022-11-24T19:30:49.611Z,7.83
2022-11-24T19:33:18.792Z,7.79
2022-11-24T19:35:46.409Z,7.78
2022-11-24T19:38:15.310Z,7.72
2022-11-24T19:40:42.990Z,7.53
2022-11-24T19:43:10.587Z,7.71
2022-11-24T19:45:43.830Z,7.75
2022-11-24T19:48:12.889Z,7.73
2022-11-24T19:50:40.566Z,7.63
2022-11-24T19:53:08.178Z,7.68
2022-11-24T19:55:35.790Z,7.68
2022-11-24T19:58:03.307Z,7.67
2022-11-24T20:00:32.220Z,7.66
2022-11-24T20:03:00.052Z,7.67
2022-11-24T20:05:29.129Z,7.73
2022-11-24T20:07:56.826Z,7.71
2022-11-24T20:10:24.763Z,7.68
2022-11-24T20:12:52.360Z,7.76
2022-11-24T20:15:20.586Z,7.71
2022-11-24T20:17:48.205Z,7.49
2022-11-24T20:20:15.878Z,7.79
2022-11-24T20:22:44.801Z,7.77
2022-11-24T20:25:12.463Z,7.76
2022-11-24T20:27:40.097Z,7.76
2022-11-24T20:30:09.205Z,7.75
2022-11-24T20:32:36.994Z,7.77
2022-11-24T20:35:04.862Z,7.74
2022-11-24T20:37:34.025Z,7.68
2022-11-24T20:40:04.135Z,7.75
2022-11-24T20:42:32.788Z,7.75
2022-11-24T20:45:00.993Z,7.77
2022-11-24T20:47:30.743Z,7.78
2022-11-24T20:49:58.321Z,7.79
2022-11-24T20:52:25.891Z,7.84
2022-11-24T20:54:53.455Z,7.85
2022-11-24T20:57:22.387Z,7.86
2022-11-24T20:59:49.986Z,7.76
2022-11-24T21:02:17.586Z,7.90
2022-11-24T21:04:45.218Z,7.92
2022-11-24T21:07:14.664Z,7.94
2022-11-24T21:09:42.341Z,7.98
2022-11-24T21:12:10.074Z,7.99
2022-11-24T21:14:39.178Z,8.03
2022-11-24T21:17:07.002Z,8.04
2022-11-24T21:19:34.696Z,8.06
2022-11-24T21:22:02.271Z,8.05
2022-11-24T21:24:30.931Z,8.05
2022-11-24T21:26:58.511Z,8.06
2022-11-24T21:29:26.221Z,8.04
2022-11-24T21:31:55.160Z,8.09
2022-11-24T21:34:22.853Z,8.14
2022-11-24T21:36:50.687Z,8.14
2022-11-24T21:39:18.889Z,8.18
2022-11-24T21:41:46.481Z,8.20
2022-11-24T21:44:14.781Z,8.26
2022-11-24T21:46:48.189Z,8.20
2022-11-24T21:49:20.018Z,8.33
2022-11-24T21:51:49.818Z,8.34
2022-11-24T21:54:17.373Z,8.33
2022-11-24T21:56:45.013Z,8.36
2022-11-24T21:59:12.608Z,8.35
2022-11-24T22:01:40.338Z,8.34
2022-11-24T22:04:08.016Z,8.36
2022-11-24T22:06:37.014Z,8.35
2022-11-24T22:09:04.690Z,8.34
2022-11-24T22:11:32.394Z,8.36
2022-11-24T22:14:00.134Z,8.35
2022-11-24T22:16:27.854Z,8.42
2022-11-24T22:18:55.443Z,8.37
2022-11-24T22:21:29.752Z,8.32
2022-11-24T22:23:58.726Z,8.32
2022-11-24T22:26:27.438Z,8.35
2022-11-24T22:28:56.201Z,8.29
2022-11-24T22:31:25.317Z,8.30
2022-11-24T22:33:53.809Z,8.28
2022-11-24T22:36:22.961Z,8.31
2022-11-24T22:38:54.773Z,8.30
2022-11-24T22:41:23.893Z,8.32
2022-11-24T22:43:51.574Z,8.31
2022-11-24T22:46:21.281Z,8.35
2022-11-24T22:48:52.850Z,8.34
2022-11-24T22:51:21.876Z,8.26
2022-11-24T22:53:50.937Z,8.33
2022-11-24T22:56:19.578Z,8.39
2022-11-24T22:58:48.888Z,8.37
2022-11-24T23:01:18.548Z,8.38
2022-11-24T23:03:46.641Z,8.41
2022-11-24T23:06:17.670Z,8.36
2022-11-24T23:08:45.573Z,8.32
2022-11-24T23:11:15.678Z,8.32
2022-11-24T23:13:43.599Z,8.25
2022-11-24T23:16:14.798Z,8.21
2022-11-24T23:18:43.042Z,8.31
2022-11-24T23:21:16.844Z,8.25
2022-11-24T23:23:44.848Z,8.29
2022-11-24T23:26:14.024Z,8.25
2022-11-24T23:28:43.135Z,8.13
2022-11-24T23:31:13.635Z,8.26
2022-11-24T23:33:42.021Z,8.19
2022-11-24T23:36:11.536Z,8.20
2022-11-24T23:38:39.479Z,8.18
2022-11-24T23:41:10.685Z,8.11
2022-11-24T23:43:40.197Z,8.08
2022-11-24T23:46:09.919Z,8.03
2022-11-24T23:48:39.799Z,8.00
2022-11-24T23:51:08.679Z,7.99
2022-11-24T23:53:36.850Z,7.95
2022-11-24T23:56:05.190Z,7.98
2022-11-24T23:58:33.107Z,7.96
